Beverly Shores, Indiana
Current Conditions -  °F | °C
As of 12:15 PM on Wednesday 28 Jan 2015 (Local Time) from KMGC Reporting Station
Clear Clear  
Wind Chill: 25°   Ceiling: Unl
Heat Index: 32°   Visibility: 10mi
Dew Point: 12°   Wind: 8mph
Humidity: 44%   Direction: 160°SSE
Pressure: 30.23"   Gusts: NA
Location:  41.69°N, 86.98°W
Report Text: KMGC 281815Z AUTO 16007KT 10SM CLR 00/M11 A3023 RMK AO2
Loading
Personal Weather Stations






























Interactive Weather Map New forecast layout! Learn more

10-Day Weather Forecast

Advertisements
Track Severe Weather on mobile